createdAt,value
2018-06-25T00:02:08.821Z,2.83
2018-06-25T00:04:37.126Z,3.50
2018-06-25T00:07:05.663Z,2.97
2018-06-25T00:09:33.951Z,3.17
2018-06-25T00:12:02.208Z,2.70
2018-06-25T00:14:30.473Z,3.10
2018-06-25T00:16:58.753Z,2.67
2018-06-25T00:19:27.001Z,2.73
2018-06-25T00:21:55.284Z,3.23
2018-06-25T00:24:23.553Z,2.83
2018-06-25T00:26:51.874Z,3.27
2018-06-25T00:29:20.114Z,2.93
2018-06-25T00:31:48.378Z,3.07
2018-06-25T00:34:16.611Z,3.17
2018-06-25T00:36:44.883Z,2.63
2018-06-25T00:39:13.154Z,2.80
2018-06-25T00:41:41.423Z,3.50
2018-06-25T00:44:09.726Z,2.80
2018-06-25T00:46:38.094Z,2.70
2018-06-25T00:49:06.515Z,2.80
2018-06-25T00:51:34.781Z,3.03
2018-06-25T00:54:03.091Z,3.00
2018-06-25T00:56:31.346Z,2.90
2018-06-25T00:59:10.753Z,2.63
2018-06-25T01:01:39.412Z,2.67
2018-06-25T01:04:07.690Z,2.80
2018-06-25T01:06:36.010Z,2.57
2018-06-25T01:09:07.619Z,2.77
2018-06-25T01:11:35.867Z,2.70
2018-06-25T01:14:04.244Z,2.50
2018-06-25T01:16:32.505Z,2.87
2018-06-25T01:19:00.784Z,2.67
2018-06-25T01:21:29.086Z,2.50
2018-06-25T01:23:57.375Z,2.93
2018-06-25T01:26:25.748Z,2.37
2018-06-25T01:28:53.978Z,2.30
2018-06-25T01:31:22.241Z,2.40
2018-06-25T01:33:50.522Z,2.60
2018-06-25T01:36:18.774Z,2.90
2018-06-25T01:38:47.238Z,2.60
2018-06-25T01:41:15.501Z,2.70
2018-06-25T01:43:44.166Z,2.60
2018-06-25T01:46:12.454Z,2.50
2018-06-25T01:48:40.724Z,2.47
2018-06-25T01:51:09.000Z,2.60
2018-06-25T01:53:37.473Z,2.30
2018-06-25T01:56:05.777Z,2.80
2018-06-25T01:58:34.079Z,3.00
2018-06-25T02:01:02.350Z,2.63
2018-06-25T02:03:30.817Z,2.60
2018-06-25T02:05:59.113Z,2.60
2018-06-25T02:08:27.460Z,2.40
2018-06-25T02:10:55.493Z,2.63
2018-06-25T02:13:23.757Z,2.47
2018-06-25T02:15:52.176Z,2.70
2018-06-25T02:18:20.825Z,2.67
2018-06-25T02:20:49.417Z,2.27
2018-06-25T02:23:17.780Z,2.33
2018-06-25T02:25:46.020Z,2.60
2018-06-25T02:28:14.302Z,2.20
2018-06-25T02:30:42.566Z,2.60
2018-06-25T02:33:10.839Z,2.60
2018-06-25T02:35:39.090Z,2.40
2018-06-25T02:38:07.347Z,2.30
2018-06-25T02:40:35.657Z,2.57
2018-06-25T02:43:04.153Z,2.40
2018-06-25T02:45:32.395Z,2.30
2018-06-25T02:48:00.690Z,2.20
2018-06-25T02:50:28.934Z,2.17
2018-06-25T02:52:57.227Z,2.43
2018-06-25T02:55:25.509Z,2.40
2018-06-25T02:57:53.810Z,2.30
2018-06-25T03:00:22.111Z,2.23
2018-06-25T03:02:50.394Z,2.50
2018-06-25T03:05:18.674Z,2.20
2018-06-25T03:07:46.955Z,2.30
2018-06-25T03:10:15.434Z,2.20
2018-06-25T03:12:43.691Z,2.70
2018-06-25T03:15:11.985Z,2.13
2018-06-25T03:17:40.279Z,2.23
2018-06-25T03:20:08.547Z,2.27
2018-06-25T03:22:36.535Z,2.20
2018-06-25T03:25:04.850Z,2.30
2018-06-25T03:27:33.121Z,2.10
2018-06-25T03:30:01.494Z,1.93
2018-06-25T03:32:29.876Z,2.20
2018-06-25T03:34:58.129Z,2.10
2018-06-25T03:37:26.396Z,2.03
2018-06-25T03:39:54.721Z,2.10
2018-06-25T03:42:22.953Z,1.77
2018-06-25T03:44:51.322Z,2.20
2018-06-25T03:47:19.618Z,1.90
2018-06-25T03:49:47.945Z,2.10
2018-06-25T03:52:16.221Z,2.37
2018-06-25T03:54:44.468Z,1.90
2018-06-25T03:57:12.735Z,1.90
2018-06-25T03:59:41.022Z,1.90
2018-06-25T04:02:09.310Z,2.10
2018-06-25T04:04:37.558Z,2.40
2018-06-25T04:07:05.849Z,2.27
2018-06-25T04:09:34.124Z,2.30
2018-06-25T04:12:02.446Z,1.67
2018-06-25T04:14:30.692Z,2.40
2018-06-25T04:16:58.953Z,1.93
2018-06-25T04:19:27.294Z,2.20
2018-06-25T04:21:55.622Z,2.10
2018-06-25T04:24:23.865Z,1.90
2018-06-25T04:26:53.169Z,1.93
2018-06-25T04:29:21.531Z,1.93
2018-06-25T04:31:49.806Z,2.00
2018-06-25T04:34:18.047Z,1.93
2018-06-25T04:36:46.331Z,1.73
2018-06-25T04:39:14.617Z,1.60
2018-06-25T04:41:42.854Z,1.80
2018-06-25T04:44:11.113Z,2.07
2018-06-25T04:46:39.361Z,2.13
2018-06-25T04:49:07.624Z,2.30
2018-06-25T04:51:35.893Z,2.10
2018-06-25T04:54:04.190Z,1.70
2018-06-25T04:56:32.490Z,2.03
2018-06-25T04:59:00.759Z,1.80
2018-06-25T05:01:29.013Z,1.80
2018-06-25T05:03:57.295Z,1.77
2018-06-25T05:06:25.558Z,1.83
2018-06-25T05:08:53.808Z,1.83
2018-06-25T05:11:22.278Z,1.63
2018-06-25T05:13:50.562Z,2.00
2018-06-25T05:16:18.834Z,2.00
2018-06-25T05:18:47.107Z,1.83
2018-06-25T05:21:15.394Z,2.00
2018-06-25T05:23:43.736Z,2.00
2018-06-25T05:26:12.078Z,2.10
2018-06-25T05:28:40.338Z,2.00
2018-06-25T05:31:08.594Z,1.83
2018-06-25T05:33:36.932Z,1.77
2018-06-25T05:36:05.352Z,1.60
2018-06-25T05:38:33.638Z,1.83
2018-06-25T05:41:01.905Z,1.80
2018-06-25T05:43:30.184Z,2.20
2018-06-25T05:45:58.406Z,2.07
2018-06-25T05:48:26.633Z,3.70
2018-06-25T05:50:55.681Z,3.60
2018-06-25T05:53:23.956Z,3.47
2018-06-25T05:55:52.316Z,3.30
2018-06-25T05:58:20.589Z,2.77
2018-06-25T06:00:48.846Z,3.10
2018-06-25T06:03:17.094Z,2.70
2018-06-25T06:05:45.350Z,2.70
2018-06-25T06:08:13.661Z,2.97
2018-06-25T06:10:41.953Z,2.80
2018-06-25T06:13:10.222Z,2.40
2018-06-25T06:15:38.567Z,2.60
2018-06-25T06:18:06.961Z,2.83
2018-06-25T06:20:35.273Z,2.67
2018-06-25T06:23:03.577Z,2.67
2018-06-25T06:25:31.882Z,2.70
2018-06-25T06:28:00.154Z,2.77
2018-06-25T06:30:28.417Z,2.80
2018-06-25T06:32:56.750Z,2.60
2018-06-25T06:35:24.986Z,2.70
2018-06-25T06:37:53.265Z,3.20
2018-06-25T06:40:21.507Z,2.30
2018-06-25T06:42:49.801Z,2.60
2018-06-25T06:45:18.186Z,2.60
2018-06-25T06:47:46.369Z,2.67
2018-06-25T06:50:14.708Z,2.83
2018-06-25T06:52:42.932Z,2.30
2018-06-25T06:55:11.229Z,2.10
2018-06-25T06:57:39.492Z,2.50
2018-06-25T07:00:07.775Z,2.83
2018-06-25T07:02:36.042Z,2.47
2018-06-25T07:05:04.390Z,2.33
2018-06-25T07:07:32.649Z,2.30
2018-06-25T07:10:00.935Z,2.30
2018-06-25T07:12:29.169Z,2.27
2018-06-25T07:14:57.407Z,2.30
2018-06-25T07:17:25.665Z,1.90
2018-06-25T07:19:53.919Z,2.33
2018-06-25T07:22:22.213Z,2.27
2018-06-25T07:24:50.475Z,2.20
2018-06-25T07:27:18.763Z,2.30
2018-06-25T07:29:47.066Z,2.10
2018-06-25T07:32:15.315Z,2.20
2018-06-25T07:34:43.571Z,1.90
2018-06-25T07:37:11.822Z,2.33
2018-06-25T07:39:40.093Z,2.33
2018-06-25T07:42:08.409Z,2.30
2018-06-25T07:44:36.647Z,2.30
2018-06-25T07:47:05.205Z,2.17
2018-06-25T07:49:33.387Z,2.10
2018-06-25T07:52:01.663Z,2.33
2018-06-25T07:54:29.939Z,2.33
2018-06-25T07:56:58.235Z,2.27
2018-06-25T07:59:26.521Z,2.30
2018-06-25T08:01:54.796Z,2.03
2018-06-25T08:04:23.069Z,2.00
2018-06-25T08:06:51.325Z,2.03
2018-06-25T08:09:19.603Z,2.17
2018-06-25T08:11:53.326Z,2.00
2018-06-25T08:14:21.666Z,2.00
2018-06-25T08:16:49.941Z,2.10
2018-06-25T08:19:18.250Z,1.90
2018-06-25T08:21:46.481Z,2.00
2018-06-25T08:24:14.793Z,2.20
2018-06-25T08:26:43.065Z,2.07
2018-06-25T08:29:11.346Z,2.10
2018-06-25T08:31:39.649Z,2.13
2018-06-25T08:34:08.379Z,1.93
2018-06-25T08:36:36.847Z,1.77
2018-06-25T08:39:08.717Z,2.53
2018-06-25T08:41:37.301Z,2.10
2018-06-25T08:44:05.477Z,2.23
2018-06-25T08:46:33.743Z,2.10
2018-06-25T08:49:01.971Z,1.87
2018-06-25T08:51:30.246Z,1.40
2018-06-25T08:53:58.702Z,1.90
2018-06-25T08:56:27.106Z,1.90
2018-06-25T08:58:55.373Z,2.00
2018-06-25T09:01:23.628Z,1.70
2018-06-25T09:03:51.899Z,1.90
2018-06-25T09:06:20.162Z,1.80
2018-06-25T09:08:48.421Z,2.03
2018-06-25T09:11:16.687Z,1.80
2018-06-25T09:13:45.000Z,2.60
2018-06-25T09:16:13.271Z,1.93
2018-06-25T09:18:41.570Z,1.73
2018-06-25T09:21:09.814Z,1.70
2018-06-25T09:23:38.218Z,2.43
2018-06-25T09:26:06.501Z,2.23
2018-06-25T09:28:34.757Z,1.70
2018-06-25T09:31:03.006Z,1.80
2018-06-25T09:33:31.322Z,1.67
2018-06-25T09:35:59.575Z,1.97
2018-06-25T09:38:27.814Z,2.10
2018-06-25T09:40:56.123Z,1.77
2018-06-25T09:43:24.320Z,2.20
2018-06-25T09:45:52.639Z,2.30
2018-06-25T09:48:20.844Z,1.77
2018-06-25T09:50:49.088Z,2.13
2018-06-25T09:53:17.382Z,1.47
2018-06-25T09:55:45.665Z,1.93
2018-06-25T09:58:13.973Z,1.77
2018-06-25T10:00:47.590Z,2.10
2018-06-25T10:03:15.865Z,2.23
2018-06-25T10:05:44.150Z,1.47
2018-06-25T10:08:12.454Z,2.00
2018-06-25T10:10:40.739Z,1.80
2018-06-25T10:13:08.984Z,2.20
2018-06-25T10:15:37.209Z,1.50
2018-06-25T10:18:05.621Z,1.50
2018-06-25T10:20:33.909Z,1.70
2018-06-25T10:23:02.198Z,1.80
2018-06-25T10:25:30.449Z,1.70
2018-06-25T10:27:58.715Z,1.90
2018-06-25T10:30:26.998Z,1.73
2018-06-25T10:32:55.261Z,1.40
2018-06-25T10:35:23.554Z,1.60
2018-06-25T10:37:51.842Z,1.50
2018-06-25T10:40:20.112Z,1.40
2018-06-25T10:42:48.350Z,1.80
2018-06-25T10:45:16.622Z,1.60
2018-06-25T10:47:44.948Z,1.73
2018-06-25T10:50:13.487Z,1.40
2018-06-25T10:52:41.741Z,1.40
2018-06-25T10:55:10.000Z,1.40
2018-06-25T10:57:38.244Z,1.70
2018-06-25T11:00:06.791Z,1.70
2018-06-25T11:02:35.074Z,1.20
2018-06-25T11:05:03.378Z,1.53
2018-06-25T11:07:31.736Z,1.30
2018-06-25T11:09:59.890Z,1.60
2018-06-25T11:12:28.167Z,1.30
2018-06-25T11:14:56.403Z,1.60
2018-06-25T11:17:24.669Z,1.50
2018-06-25T11:19:52.921Z,1.20
2018-06-25T11:22:21.195Z,1.43
2018-06-25T11:24:49.446Z,1.33
2018-06-25T11:27:17.704Z,1.00
2018-06-25T11:29:45.950Z,1.20
2018-06-25T11:32:14.208Z,1.30
2018-06-25T11:34:42.529Z,1.30
2018-06-25T11:37:10.527Z,1.30
2018-06-25T11:39:38.772Z,1.10
2018-06-25T11:42:07.070Z,1.10
2018-06-25T11:44:35.346Z,1.10
2018-06-25T11:47:03.598Z,1.30
2018-06-25T11:49:31.885Z,1.20
2018-06-25T11:52:00.314Z,1.50
2018-06-25T11:54:28.596Z,1.10
2018-06-25T11:56:56.889Z,1.30
2018-06-25T11:59:25.208Z,1.20
2018-06-25T12:04:22.666Z,1.17
2018-06-25T12:06:51.015Z,1.20
2018-06-25T12:09:19.278Z,1.27
2018-06-25T12:11:47.630Z,1.10
2018-06-25T12:14:16.047Z,1.20
2018-06-25T12:16:44.186Z,1.33
2018-06-25T12:19:12.458Z,1.10
2018-06-25T12:21:40.701Z,1.27
2018-06-25T12:24:08.989Z,1.00
2018-06-25T12:26:37.242Z,1.10
2018-06-25T12:29:06.125Z,1.10
2018-06-25T12:31:34.417Z,1.10
2018-06-25T12:34:02.709Z,1.10
2018-06-25T12:36:30.991Z,1.13
2018-06-25T12:38:59.274Z,1.10
2018-06-25T12:41:27.564Z,1.10
2018-06-25T12:43:55.901Z,1.13
2018-06-25T12:46:24.159Z,1.10
2018-06-25T12:48:52.421Z,1.20
2018-06-25T12:51:20.742Z,1.10
2018-06-25T12:53:49.054Z,1.30
2018-06-25T12:56:17.286Z,1.17
2018-06-25T12:58:45.535Z,1.23
2018-06-25T13:01:14.295Z,1.03
2018-06-25T13:03:42.566Z,1.37
2018-06-25T13:06:10.853Z,1.20
2018-06-25T13:08:39.122Z,1.20
2018-06-25T13:11:07.406Z,1.10
2018-06-25T13:13:35.671Z,1.60
2018-06-25T13:16:03.975Z,1.20
2018-06-25T13:18:32.297Z,1.30
2018-06-25T13:21:00.578Z,1.20
2018-06-25T13:23:28.846Z,1.37
2018-06-25T13:25:57.090Z,1.20
2018-06-25T13:28:25.390Z,1.43
2018-06-25T13:30:53.745Z,1.30
2018-06-25T13:33:22.109Z,1.10
2018-06-25T13:35:50.385Z,1.10
2018-06-25T13:38:18.776Z,1.10
2018-06-25T13:40:46.983Z,1.30
2018-06-25T13:43:15.370Z,1.40
2018-06-25T13:45:43.802Z,1.23
2018-06-25T13:48:12.073Z,1.00
2018-06-25T13:50:40.278Z,1.30
2018-06-25T13:53:08.594Z,1.33
2018-06-25T13:55:36.927Z,1.50
2018-06-25T13:58:05.490Z,1.40
2018-06-25T14:00:33.838Z,1.47
2018-06-25T14:03:02.043Z,1.50
2018-06-25T14:05:30.357Z,1.20
2018-06-25T14:07:58.355Z,1.30
2018-06-25T14:10:26.820Z,1.47
2018-06-25T14:12:55.134Z,1.30
2018-06-25T14:15:23.431Z,1.47
2018-06-25T14:17:53.348Z,1.70
2018-06-25T14:20:21.682Z,1.20
2018-06-25T14:22:50.058Z,1.20
2018-06-25T14:25:18.317Z,1.20
2018-06-25T14:27:52.012Z,1.80
2018-06-25T14:30:25.721Z,1.33
2018-06-25T14:32:59.420Z,1.17
2018-06-25T14:35:27.685Z,1.40
2018-06-25T14:37:55.956Z,1.57
2018-06-25T14:40:24.295Z,1.50
2018-06-25T14:42:52.545Z,1.70
2018-06-25T14:45:20.810Z,1.57
2018-06-25T14:47:49.122Z,1.70
2018-06-25T14:50:17.422Z,1.07
2018-06-25T14:52:45.683Z,1.40
2018-06-25T14:55:13.978Z,1.30
2018-06-25T14:57:42.270Z,1.30
2018-06-25T15:00:10.562Z,1.60
2018-06-25T15:02:38.933Z,1.60
2018-06-25T15:05:07.125Z,1.47
2018-06-25T15:07:35.410Z,1.60
2018-06-25T15:10:03.778Z,1.43
2018-06-25T15:12:32.055Z,1.50
2018-06-25T15:15:00.398Z,1.40
2018-06-25T15:17:28.708Z,1.63
2018-06-25T15:19:57.106Z,1.50
2018-06-25T15:22:25.300Z,1.63
2018-06-25T15:24:53.601Z,1.67
2018-06-25T15:27:21.894Z,1.70
2018-06-25T15:29:50.141Z,1.50
2018-06-25T15:32:18.411Z,1.60
2018-06-25T15:34:46.750Z,1.50
2018-06-25T15:37:15.004Z,1.27
2018-06-25T15:39:43.282Z,1.67
2018-06-25T15:42:18.415Z,1.50
2018-06-25T15:44:46.674Z,1.77
2018-06-25T15:47:14.966Z,1.43
2018-06-25T15:49:43.234Z,1.60
2018-06-25T15:52:11.477Z,1.60
2018-06-25T15:54:39.739Z,1.27
2018-06-25T15:57:08.184Z,1.67
2018-06-25T15:59:36.453Z,1.70
2018-06-25T16:02:04.697Z,1.50
2018-06-25T16:04:34.073Z,1.70
2018-06-25T16:07:02.706Z,1.83
2018-06-25T16:09:31.165Z,1.90
2018-06-25T16:11:59.420Z,1.80
2018-06-25T16:14:27.811Z,1.70
2018-06-25T16:16:56.514Z,1.90
2018-06-25T16:19:24.865Z,1.73
2018-06-25T16:21:53.161Z,1.97
2018-06-25T16:24:21.576Z,1.80
2018-06-25T16:26:49.979Z,1.57
2018-06-25T16:29:18.229Z,1.67
2018-06-25T16:31:46.558Z,2.40
2018-06-25T16:34:14.815Z,1.80
2018-06-25T16:36:43.107Z,1.50
2018-06-25T16:39:12.668Z,1.60
2018-06-25T16:41:41.366Z,1.90
2018-06-25T16:44:09.760Z,1.57
2018-06-25T16:46:38.549Z,1.90
2018-06-25T16:49:07.414Z,1.67
2018-06-25T16:51:35.697Z,1.40
2018-06-25T16:54:04.209Z,1.70
2018-06-25T16:56:32.592Z,1.87
2018-06-25T16:59:00.854Z,1.80
2018-06-25T17:01:28.857Z,1.53
2018-06-25T17:03:57.118Z,1.70
2018-06-25T17:06:25.410Z,1.53
2018-06-25T17:08:53.661Z,1.80
2018-06-25T17:11:22.057Z,1.50
2018-06-25T17:13:50.080Z,1.73
2018-06-25T17:16:18.353Z,1.50
2018-06-25T17:18:46.630Z,1.80
2018-06-25T17:21:14.965Z,1.97
2018-06-25T17:23:43.317Z,1.80
2018-06-25T17:26:11.512Z,1.70
2018-06-25T17:28:39.822Z,1.97
2018-06-25T17:31:08.333Z,1.87
2018-06-25T17:33:36.592Z,1.70
2018-06-25T17:36:04.994Z,2.07
2018-06-25T17:38:33.285Z,1.77
2018-06-25T17:41:01.526Z,1.70
2018-06-25T17:43:29.771Z,1.67
2018-06-25T17:45:58.018Z,1.67
2018-06-25T17:48:26.380Z,1.73
2018-06-25T17:50:54.533Z,1.70
2018-06-25T17:53:22.798Z,1.70
2018-06-25T17:55:51.077Z,1.53
2018-06-25T17:58:19.361Z,1.70
2018-06-25T18:00:47.638Z,1.80
2018-06-25T18:03:15.963Z,1.97
2018-06-25T18:05:44.616Z,1.73
2018-06-25T18:08:13.163Z,1.93
2018-06-25T18:10:41.444Z,1.97
2018-06-25T18:13:09.729Z,1.80
2018-06-25T18:15:38.053Z,1.70
2018-06-25T18:18:06.342Z,1.70
2018-06-25T18:20:34.671Z,1.57
2018-06-25T18:23:02.910Z,1.73
2018-06-25T18:25:31.233Z,1.90
2018-06-25T18:27:59.537Z,1.77
2018-06-25T18:30:27.835Z,1.70
2018-06-25T18:32:56.154Z,1.73
2018-06-25T18:35:24.534Z,1.70
2018-06-25T18:37:53.086Z,1.80
2018-06-25T18:40:21.606Z,1.90
2018-06-25T18:42:49.874Z,1.70
2018-06-25T18:45:18.218Z,1.60
2018-06-25T18:47:46.510Z,1.90
2018-06-25T18:50:14.865Z,1.80
2018-06-25T18:52:43.198Z,1.40
2018-06-25T18:55:11.513Z,1.60
2018-06-25T18:57:39.918Z,1.70
2018-06-25T19:00:09.318Z,1.53
2018-06-25T19:02:37.709Z,1.43
2018-06-25T19:05:06.521Z,1.60
2018-06-25T19:07:34.852Z,1.63
2018-06-25T19:10:03.115Z,1.80
2018-06-25T19:12:31.394Z,1.63
2018-06-25T19:14:59.675Z,1.70
2018-06-25T19:17:27.959Z,1.77
2018-06-25T19:19:56.258Z,1.67
2018-06-25T19:22:24.642Z,2.23
2018-06-25T19:24:52.914Z,1.60
2018-06-25T19:27:21.201Z,1.67
2018-06-25T19:29:49.477Z,2.00
2018-06-25T19:32:17.738Z,1.70
2018-06-25T19:34:46.031Z,1.70
2018-06-25T19:37:14.353Z,2.00
2018-06-25T19:39:42.610Z,1.73
2018-06-25T19:42:10.935Z,1.90
2018-06-25T19:44:39.206Z,2.30
2018-06-25T19:47:07.502Z,2.03
2018-06-25T19:49:35.748Z,1.60
2018-06-25T19:52:04.033Z,1.90
2018-06-25T19:54:32.308Z,1.70
2018-06-25T19:57:00.330Z,1.40
2018-06-25T19:59:28.813Z,1.90
2018-06-25T20:01:57.103Z,1.70
2018-06-25T20:04:25.779Z,1.70
2018-06-25T20:06:54.086Z,1.87
2018-06-25T20:09:22.356Z,2.13
2018-06-25T20:11:50.683Z,1.77
2018-06-25T20:14:18.939Z,1.70
2018-06-25T20:16:47.406Z,1.77
2018-06-25T20:19:15.648Z,1.80
2018-06-25T20:21:45.917Z,1.70
2018-06-25T20:24:14.741Z,1.70
2018-06-25T20:26:43.022Z,1.97
2018-06-25T20:29:11.314Z,1.83
2018-06-25T20:31:39.545Z,1.70
2018-06-25T20:34:07.961Z,1.70
2018-06-25T20:36:36.158Z,1.70
2018-06-25T20:39:07.762Z,1.40
2018-06-25T20:41:36.056Z,1.60
2018-06-25T20:44:04.850Z,1.60
2018-06-25T20:46:33.290Z,1.20
2018-06-25T20:49:01.594Z,1.80
2018-06-25T20:51:29.950Z,1.90
2018-06-25T20:53:58.772Z,1.50
2018-06-25T20:56:27.051Z,1.50
2018-06-25T20:58:55.631Z,1.60
2018-06-25T21:01:23.886Z,1.57
2018-06-25T21:03:52.129Z,1.30
2018-06-25T21:06:20.381Z,1.40
2018-06-25T21:08:48.858Z,1.57
2018-06-25T21:11:17.550Z,1.60
2018-06-25T21:13:45.807Z,1.33
2018-06-25T21:16:14.071Z,1.50
2018-06-25T21:18:42.579Z,1.60
2018-06-25T21:21:10.645Z,1.30
2018-06-25T21:23:38.933Z,1.70
2018-06-25T21:26:07.214Z,1.53
2018-06-25T21:28:35.504Z,1.50
2018-06-25T21:31:03.754Z,1.50
2018-06-25T21:33:32.062Z,1.33
2018-06-25T21:36:00.575Z,1.40
2018-06-25T21:38:28.666Z,1.63
2018-06-25T21:40:56.925Z,1.60
2018-06-25T21:43:25.189Z,1.50
2018-06-25T21:45:53.431Z,1.40
2018-06-25T21:48:21.882Z,1.60
2018-06-25T21:50:50.138Z,1.57
2018-06-25T21:53:18.385Z,1.70
2018-06-25T21:55:46.639Z,1.40
2018-06-25T21:58:14.890Z,1.50
2018-06-25T22:00:51.926Z,1.30
2018-06-25T22:03:20.182Z,1.40
2018-06-25T22:05:49.167Z,1.50
2018-06-25T22:08:17.462Z,1.50
2018-06-25T22:10:45.754Z,1.27
2018-06-25T22:13:14.010Z,1.53
2018-06-25T22:15:42.289Z,1.50
2018-06-25T22:18:10.559Z,1.50
2018-06-25T22:20:38.926Z,1.50
2018-06-25T22:23:07.204Z,1.30
2018-06-25T22:25:35.476Z,1.60
2018-06-25T22:28:03.801Z,1.30
2018-06-25T22:30:32.081Z,1.63
2018-06-25T22:33:00.338Z,1.90
2018-06-25T22:35:28.566Z,1.20
2018-06-25T22:37:56.874Z,1.33
2018-06-25T22:40:25.135Z,1.43
2018-06-25T22:42:53.346Z,1.37
2018-06-25T22:45:21.636Z,1.50
2018-06-25T22:47:49.937Z,1.40
2018-06-25T22:50:18.228Z,1.40
2018-06-25T22:52:46.481Z,1.70
2018-06-25T22:55:14.754Z,1.37
2018-06-25T22:57:43.041Z,1.53
2018-06-25T23:00:11.317Z,1.60
2018-06-25T23:02:39.604Z,1.50
2018-06-25T23:05:07.845Z,1.50
2018-06-25T23:07:36.134Z,1.50
2018-06-25T23:10:04.427Z,1.80
2018-06-25T23:12:32.681Z,1.33
2018-06-25T23:15:00.938Z,1.37
2018-06-25T23:17:29.361Z,1.40
2018-06-25T23:19:57.591Z,1.57
2018-06-25T23:22:25.879Z,1.20
2018-06-25T23:24:54.107Z,1.30
2018-06-25T23:27:22.521Z,1.57
2018-06-25T23:29:50.813Z,1.40
2018-06-25T23:32:19.106Z,1.50
2018-06-25T23:34:47.357Z,1.60
2018-06-25T23:37:15.341Z,1.57
2018-06-25T23:39:43.635Z,1.33
2018-06-25T23:42:11.927Z,1.20
2018-06-25T23:44:40.174Z,1.67
2018-06-25T23:47:08.445Z,1.40
2018-06-25T23:49:36.711Z,1.30
2018-06-25T23:52:04.991Z,1.53
2018-06-25T23:54:33.234Z,1.43
2018-06-25T23:57:01.618Z,1.60
2018-06-25T23:59:29.868Z,1.40
